< < Back
Terminal Aerodrome Forecast


Current Version              Previous Versions:   1  2  3  4  5  6  7  8  9  

Terminal Aerodrome Forecast

269
FTUS42 KFFC 231700
TAFMCN
TAF
KMCN 231720Z 2318/2418 31004KT P6SM FEW250
     FM240000 00000KT P6SM SCT250
     FM241600 17003KT P6SM FEW200=

Latest METAR

909
SAUS80 KWBC 241300 RRC
MTRMCN
METAR KMCN 241253Z 00000KT 10SM CLR 09/08 A3007 RMK AO2 SLP183
T00940083


USA.gov is the U.S. government's official web portal to all federal, state and local government web resources and services.